sim
Sign-in with your pilot id or email,
or register
Callsign
Passwort

Schedule Details

Flight Number: RYR4774 (1)
Departure: Milan Bergamo Il Caravaggio International Airport (LIME) at 08:15
Arrival: Thessaloniki International Airport (LGTS) at 10:20
Route: Ryanair Passenger Schedule. Enter filed route here before submitting Pirep.

Weather Information
Getting current METAR information for LIME 210050Z 01005KT CAVOK 11/06 Q1024 NOSIG
Getting current METAR information for LGTS 210050Z 11006KT 9999 SCT025 09/07 Q1026 NOSIG

Schedule Frequency

Route Map